createdAt,value
2022-10-06T00:01:06.198Z,71.27
2022-10-06T00:03:33.161Z,71.46
2022-10-06T00:06:02.381Z,71.67
2022-10-06T00:08:31.885Z,71.79
2022-10-06T00:10:59.032Z,72.07
2022-10-06T00:13:26.974Z,72.35
2022-10-06T00:15:53.745Z,72.13
2022-10-06T00:18:20.619Z,71.67
2022-10-06T00:20:58.240Z,71.82
2022-10-06T00:23:25.785Z,71.20
2022-10-06T00:25:52.603Z,71.19
2022-10-06T00:28:19.900Z,71.42
2022-10-06T00:30:47.316Z,70.42
2022-10-06T00:33:17.487Z,70.62
2022-10-06T00:35:45.367Z,70.07
2022-10-06T00:38:14.252Z,69.78
2022-10-06T00:40:49.338Z,69.11
2022-10-06T00:43:52.180Z,69.81
2022-10-06T00:46:43.484Z,69.54
2022-10-06T00:49:13.138Z,69.66
2022-10-06T00:51:46.061Z,70.54
2022-10-06T00:54:13.187Z,70.49
2022-10-06T00:56:40.751Z,71.02
2022-10-06T00:59:13.268Z,71.05
2022-10-06T01:01:49.333Z,71.07
2022-10-06T01:04:17.869Z,72.16
2022-10-06T01:06:49.459Z,71.90
2022-10-06T01:09:17.725Z,71.69
2022-10-06T01:11:47.105Z,71.93
2022-10-06T01:14:15.009Z,71.46
2022-10-06T01:16:43.784Z,71.49
2022-10-06T01:19:35.184Z,71.69
2022-10-06T01:22:06.732Z,72.47
2022-10-06T01:24:33.560Z,72.55
2022-10-06T01:27:01.605Z,72.30
2022-10-06T01:29:29.098Z,72.26
2022-10-06T01:31:55.868Z,72.18
2022-10-06T01:34:22.902Z,72.76
2022-10-06T01:36:49.680Z,73.26
2022-10-06T01:39:16.464Z,72.97
2022-10-06T01:41:43.321Z,73.15
2022-10-06T01:44:10.309Z,73.20
2022-10-06T01:46:37.120Z,72.41
2022-10-06T01:49:03.940Z,72.54
2022-10-06T01:51:30.952Z,73.15
2022-10-06T01:53:57.689Z,72.45
2022-10-06T01:56:24.629Z,72.74
2022-10-06T01:58:51.437Z,73.02
2022-10-06T02:01:18.277Z,73.12
2022-10-06T02:03:45.023Z,72.32
2022-10-06T02:06:11.976Z,73.55
2022-10-06T02:08:38.969Z,73.30
2022-10-06T02:11:10.875Z,73.39
2022-10-06T02:13:38.410Z,72.72
2022-10-06T02:16:06.999Z,73.05
2022-10-06T02:18:34.574Z,72.86
2022-10-06T02:21:04.779Z,74.18
2022-10-06T02:23:32.160Z,74.34
2022-10-06T02:26:04.290Z,73.46
2022-10-06T02:28:31.798Z,73.86
2022-10-06T02:31:03.717Z,74.23
2022-10-06T02:33:32.435Z,74.54
2022-10-06T02:35:59.749Z,74.32
2022-10-06T02:38:27.813Z,74.42
2022-10-06T02:40:55.086Z,74.42
2022-10-06T02:43:22.276Z,75.48
2022-10-06T02:45:56.261Z,74.88
2022-10-06T02:48:24.229Z,75.51
2022-10-06T02:50:55.957Z,75.44
2022-10-06T02:53:23.352Z,75.74
2022-10-06T02:55:50.072Z,75.90
2022-10-06T02:58:16.849Z,75.77
2022-10-06T03:00:43.626Z,75.39
2022-10-06T03:03:14.480Z,75.33
2022-10-06T03:05:41.273Z,75.47
2022-10-06T03:08:11.241Z,75.58
2022-10-06T03:10:38.028Z,75.45
2022-10-06T03:13:06.077Z,75.35
2022-10-06T03:15:32.909Z,75.17
2022-10-06T03:17:59.933Z,75.28
2022-10-06T03:20:26.936Z,75.31
2022-10-06T03:22:54.017Z,75.26
2022-10-06T03:25:20.806Z,75.68
2022-10-06T03:27:47.553Z,75.84
2022-10-06T03:30:14.515Z,75.88
2022-10-06T03:32:41.286Z,75.70
2022-10-06T03:35:09.329Z,76.64
2022-10-06T03:37:36.613Z,76.55
2022-10-06T03:40:03.651Z,77.08
2022-10-06T03:42:30.419Z,76.99
2022-10-06T03:44:57.200Z,77.70
2022-10-06T03:47:24.003Z,77.02
2022-10-06T03:49:50.837Z,77.23
2022-10-06T03:52:20.203Z,77.45
2022-10-06T03:54:50.423Z,77.40
2022-10-06T03:57:17.138Z,77.83
2022-10-06T03:59:43.976Z,77.46
2022-10-06T04:02:11.280Z,77.77
2022-10-06T04:04:38.776Z,77.77
2022-10-06T04:07:05.667Z,77.63
2022-10-06T04:09:32.638Z,77.48
2022-10-06T04:11:59.365Z,77.82
2022-10-06T04:14:26.180Z,77.73
2022-10-06T04:16:52.915Z,77.19
2022-10-06T04:19:19.695Z,77.48
2022-10-06T04:21:48.568Z,77.32
2022-10-06T04:24:15.477Z,76.84
2022-10-06T04:26:44.519Z,75.68
2022-10-06T04:29:11.701Z,75.54
2022-10-06T04:31:40.523Z,76.06
2022-10-06T04:34:08.235Z,75.38
2022-10-06T04:36:37.678Z,75.03
2022-10-06T04:39:05.878Z,73.73
2022-10-06T04:41:38.025Z,72.26
2022-10-06T04:44:05.705Z,72.43
2022-10-06T04:46:49.431Z,73.42
2022-10-06T04:49:20.502Z,73.76
2022-10-06T04:51:48.975Z,73.82
2022-10-06T04:54:15.950Z,73.85
2022-10-06T04:56:42.794Z,73.37
2022-10-06T04:59:09.733Z,73.47
2022-10-06T05:01:37.862Z,73.37
2022-10-06T05:04:06.162Z,73.11
2022-10-06T05:06:38.672Z,72.67
2022-10-06T05:09:15.661Z,72.51
2022-10-06T05:11:42.891Z,72.72
2022-10-06T05:14:10.032Z,71.77
2022-10-06T05:16:36.994Z,72.31
2022-10-06T05:19:03.990Z,72.67
2022-10-06T05:21:32.326Z,73.69
2022-10-06T05:24:00.058Z,73.43
2022-10-06T05:26:29.692Z,73.50
2022-10-06T05:28:56.538Z,74.17
2022-10-06T05:31:28.721Z,74.04
2022-10-06T05:33:56.639Z,73.58
2022-10-06T05:36:26.428Z,74.32
2022-10-06T05:38:53.498Z,74.40
2022-10-06T05:41:28.321Z,74.14
2022-10-06T05:43:55.590Z,73.51
2022-10-06T05:46:24.048Z,73.29
2022-10-06T05:48:53.024Z,72.65
2022-10-06T05:51:21.026Z,72.42
2022-10-06T05:53:48.175Z,72.08
2022-10-06T05:56:17.964Z,72.34
2022-10-06T05:58:47.820Z,71.68
2022-10-06T06:01:22.136Z,71.78
2022-10-06T06:03:51.367Z,71.96
2022-10-06T06:06:26.125Z,71.94
2022-10-06T06:08:58.943Z,71.66
2022-10-06T06:11:26.778Z,71.69
2022-10-06T06:14:04.514Z,71.91
2022-10-06T06:16:32.650Z,70.97
2022-10-06T06:19:00.724Z,71.32
2022-10-06T06:21:28.503Z,70.23
2022-10-06T06:23:55.864Z,70.11
2022-10-06T06:26:26.959Z,69.10
2022-10-06T06:28:56.258Z,69.66
2022-10-06T06:31:36.217Z,69.67
2022-10-06T06:34:04.777Z,69.29
2022-10-06T06:36:36.998Z,68.36
2022-10-06T06:39:06.623Z,67.01
2022-10-06T06:41:36.451Z,66.32
2022-10-06T06:44:03.603Z,66.91
2022-10-06T06:46:31.268Z,66.24
2022-10-06T06:49:01.269Z,65.52
2022-10-06T06:51:28.226Z,65.80
2022-10-06T06:53:55.285Z,66.03
2022-10-06T06:56:22.040Z,65.92
2022-10-06T06:58:48.890Z,66.69
2022-10-06T07:01:18.508Z,67.05
2022-10-06T07:03:58.983Z,66.54
2022-10-06T07:06:28.083Z,66.37
2022-10-06T07:08:56.500Z,66.40
2022-10-06T07:11:43.524Z,66.06
2022-10-06T07:14:11.894Z,66.07
2022-10-06T07:16:38.963Z,65.72
2022-10-06T07:19:07.038Z,66.13
2022-10-06T07:21:33.970Z,66.31
2022-10-06T07:24:00.841Z,66.27
2022-10-06T07:26:27.876Z,67.02
2022-10-06T07:28:54.694Z,67.27
2022-10-06T07:31:21.568Z,68.44
2022-10-06T07:33:48.506Z,68.37
2022-10-06T07:36:15.263Z,68.62
2022-10-06T07:38:42.066Z,68.52
2022-10-06T07:41:24.674Z,68.09
2022-10-06T07:43:52.024Z,67.94
2022-10-06T07:46:18.864Z,68.03
2022-10-06T07:48:49.111Z,68.10
2022-10-06T07:51:18.115Z,67.88
2022-10-06T07:53:45.273Z,68.00
2022-10-06T07:56:12.081Z,67.78
2022-10-06T07:58:38.904Z,67.93
2022-10-06T08:01:09.723Z,68.28
2022-10-06T08:03:41.247Z,68.18
2022-10-06T08:06:09.027Z,67.53
2022-10-06T08:08:35.755Z,68.00
2022-10-06T08:11:02.652Z,67.47
2022-10-06T08:13:29.852Z,67.51
2022-10-06T08:16:03.169Z,67.57
2022-10-06T08:18:46.818Z,67.21
2022-10-06T08:21:19.270Z,65.98
2022-10-06T08:23:47.911Z,65.61
2022-10-06T08:26:16.386Z,65.18
2022-10-06T08:28:51.435Z,64.62
2022-10-06T08:31:20.391Z,63.97
2022-10-06T08:33:48.394Z,63.70
2022-10-06T08:36:18.254Z,63.06
2022-10-06T08:38:46.218Z,63.13
2022-10-06T08:41:28.278Z,63.18
2022-10-06T08:44:03.110Z,62.96
2022-10-06T08:46:45.666Z,62.87
2022-10-06T08:49:19.107Z,62.40
2022-10-06T08:52:00.727Z,62.34
2022-10-06T08:54:43.937Z,62.10
2022-10-06T08:57:10.667Z,62.40
2022-10-06T08:59:37.763Z,62.48
2022-10-06T09:02:23.436Z,61.49
2022-10-06T09:04:50.249Z,60.62
2022-10-06T09:07:46.226Z,59.68
2022-10-06T09:10:28.941Z,60.70
2022-10-06T09:13:01.078Z,60.77
2022-10-06T09:15:27.756Z,60.36
2022-10-06T09:18:02.142Z,60.99
2022-10-06T09:20:37.328Z,60.84
2022-10-06T09:23:07.079Z,61.07
2022-10-06T09:25:34.128Z,61.29
2022-10-06T09:28:02.106Z,61.38
2022-10-06T09:30:29.274Z,61.04
2022-10-06T09:33:00.436Z,61.42
2022-10-06T09:35:30.050Z,61.25
2022-10-06T09:38:01.411Z,61.37
2022-10-06T09:40:35.987Z,61.17
2022-10-06T09:43:25.100Z,61.91
2022-10-06T09:45:53.051Z,61.16
2022-10-06T09:48:24.935Z,60.92
2022-10-06T09:51:14.621Z,61.03
2022-10-06T09:53:43.219Z,61.53
2022-10-06T09:56:21.175Z,61.55
2022-10-06T09:58:59.655Z,60.82
2022-10-06T10:01:28.325Z,61.61
2022-10-06T10:04:19.490Z,61.91
2022-10-06T10:06:48.178Z,61.52
2022-10-06T10:09:20.689Z,61.07
2022-10-06T10:12:08.046Z,60.98
2022-10-06T10:14:38.735Z,60.72
2022-10-06T10:17:31.609Z,60.63
2022-10-06T10:20:05.688Z,60.69
2022-10-06T10:22:43.766Z,60.68
2022-10-06T10:25:36.767Z,60.58
2022-10-06T10:28:36.232Z,60.24
2022-10-06T10:31:25.848Z,60.01
2022-10-06T10:34:25.088Z,59.68
2022-10-06T10:37:06.192Z,59.88
2022-10-06T10:39:46.064Z,60.11
2022-10-06T10:42:22.857Z,59.99
2022-10-06T10:45:03.500Z,59.58
2022-10-06T10:47:37.541Z,60.34
2022-10-06T10:50:32.188Z,59.96
2022-10-06T10:53:11.274Z,59.96
2022-10-06T10:55:43.144Z,59.75
2022-10-06T10:58:37.471Z,59.58
2022-10-06T11:01:35.307Z,58.53
2022-10-06T11:04:03.193Z,59.32
2022-10-06T11:06:41.708Z,58.64
2022-10-06T11:09:17.642Z,59.20
2022-10-06T11:12:08.031Z,59.65
2022-10-06T11:15:02.835Z,58.82
2022-10-06T11:17:43.685Z,58.91
2022-10-06T11:20:39.035Z,58.71
2022-10-06T11:23:25.588Z,58.76
2022-10-06T11:26:23.174Z,58.22
2022-10-06T11:29:27.097Z,58.69
2022-10-06T11:32:02.819Z,59.13
2022-10-06T11:34:29.550Z,59.34
2022-10-06T11:37:01.037Z,59.31
2022-10-06T11:40:02.813Z,59.34
2022-10-06T11:42:34.573Z,59.88
2022-10-06T11:45:15.336Z,59.55
2022-10-06T11:47:57.681Z,59.84
2022-10-06T11:50:42.827Z,59.82
2022-10-06T11:53:28.045Z,59.26
2022-10-06T11:56:16.774Z,60.08
2022-10-06T11:58:52.639Z,59.77
2022-10-06T12:01:31.321Z,59.85
2022-10-06T12:04:10.371Z,60.35
2022-10-06T12:06:43.378Z,60.91
2022-10-06T12:09:25.185Z,60.58
2022-10-06T12:11:54.261Z,60.61
2022-10-06T12:16:32.338Z,60.88
2022-10-06T12:17:53.610Z,60.37
2022-10-06T12:20:57.203Z,60.61
2022-10-06T12:23:46.190Z,61.17
2022-10-06T12:26:18.884Z,61.00
2022-10-06T12:28:55.832Z,61.69
2022-10-06T12:31:53.649Z,61.53
2022-10-06T12:34:43.443Z,61.23
2022-10-06T12:37:29.009Z,61.93
2022-10-06T12:40:33.662Z,62.02
2022-10-06T12:43:13.022Z,61.81
2022-10-06T12:45:46.038Z,62.15
2022-10-06T12:48:39.116Z,62.79
2022-10-06T12:51:12.645Z,62.50
2022-10-06T12:54:16.484Z,62.32
2022-10-06T12:56:44.376Z,62.61
2022-10-06T12:59:37.531Z,62.38
2022-10-06T13:02:22.182Z,62.39
2022-10-06T13:04:57.790Z,62.65
2022-10-06T13:07:30.430Z,62.45
2022-10-06T13:10:15.518Z,62.24
2022-10-06T13:12:44.152Z,62.36
2022-10-06T13:15:27.105Z,62.35
2022-10-06T13:18:19.158Z,62.17
2022-10-06T13:20:56.779Z,62.31
2022-10-06T13:23:27.429Z,62.25
2022-10-06T13:26:03.359Z,62.17
2022-10-06T13:28:35.879Z,62.02
2022-10-06T13:31:19.452Z,62.28
2022-10-06T13:33:50.037Z,61.66
2022-10-06T13:36:17.552Z,62.18
2022-10-06T13:38:44.311Z,61.75
2022-10-06T13:41:14.058Z,62.58
2022-10-06T13:44:06.182Z,62.26
2022-10-06T13:46:40.035Z,62.58
2022-10-06T13:49:51.108Z,62.63
2022-10-06T13:52:30.362Z,62.61
2022-10-06T13:54:59.851Z,62.62
2022-10-06T13:57:49.806Z,63.13
2022-10-06T14:00:48.713Z,62.82
2022-10-06T14:03:21.807Z,62.92
2022-10-06T14:05:49.078Z,62.99
2022-10-06T14:08:25.321Z,62.78
2022-10-06T14:11:05.391Z,63.54
2022-10-06T14:13:50.992Z,63.28
2022-10-06T14:16:23.939Z,62.96
2022-10-06T14:18:58.112Z,63.09
2022-10-06T14:21:43.142Z,63.44
2022-10-06T14:24:15.898Z,63.28
2022-10-06T14:26:47.124Z,63.01
2022-10-06T14:29:14.112Z,63.34
2022-10-06T14:31:41.145Z,63.08
2022-10-06T14:34:11.844Z,63.02
2022-10-06T14:36:47.651Z,63.46
2022-10-06T14:39:15.639Z,63.46
2022-10-06T14:41:42.651Z,63.39
2022-10-06T14:44:10.842Z,63.59
2022-10-06T14:46:39.173Z,63.41
2022-10-06T14:49:10.873Z,63.68
2022-10-06T14:51:38.780Z,64.01
2022-10-06T14:54:06.502Z,63.70
2022-10-06T14:56:34.741Z,64.20
2022-10-06T14:59:04.606Z,63.87
2022-10-06T15:01:33.566Z,64.15
2022-10-06T15:04:03.051Z,64.34
2022-10-06T15:06:29.782Z,64.29
2022-10-06T15:08:58.913Z,64.53
2022-10-06T15:11:28.211Z,64.97
2022-10-06T15:13:57.019Z,65.00
2022-10-06T15:16:27.346Z,64.55
2022-10-06T15:18:54.295Z,64.98
2022-10-06T15:21:21.145Z,65.30
2022-10-06T15:23:48.020Z,65.29
2022-10-06T15:26:14.951Z,65.18
2022-10-06T15:28:41.709Z,65.68
2022-10-06T15:31:08.506Z,65.64
2022-10-06T15:33:36.713Z,65.98
2022-10-06T15:36:17.269Z,66.10
2022-10-06T15:38:44.591Z,65.70
2022-10-06T15:41:11.710Z,65.85
2022-10-06T15:43:39.006Z,66.30
2022-10-06T15:46:06.005Z,66.36
2022-10-06T15:48:32.788Z,66.37
2022-10-06T15:50:59.460Z,66.45
2022-10-06T15:53:26.309Z,66.65
2022-10-06T15:55:53.005Z,66.75
2022-10-06T15:58:19.703Z,66.75
2022-10-06T16:00:46.452Z,66.72
2022-10-06T16:03:13.189Z,66.84
2022-10-06T16:05:39.907Z,66.84
2022-10-06T16:08:06.724Z,66.44
2022-10-06T16:10:33.456Z,66.65
2022-10-06T16:13:00.218Z,66.98
2022-10-06T16:15:27.042Z,66.73
2022-10-06T16:17:55.113Z,67.07
2022-10-06T16:20:21.791Z,67.06
2022-10-06T16:22:48.548Z,67.17
2022-10-06T16:25:15.397Z,66.92
2022-10-06T16:27:45.082Z,67.59
2022-10-06T16:30:12.117Z,67.38
2022-10-06T16:32:38.975Z,67.48
2022-10-06T16:35:06.415Z,67.81
2022-10-06T16:37:33.319Z,67.73
2022-10-06T16:40:00.119Z,67.50
2022-10-06T16:42:26.880Z,67.54
2022-10-06T16:44:53.608Z,67.78
2022-10-06T16:47:20.369Z,67.87
2022-10-06T16:49:47.046Z,68.19
2022-10-06T16:52:13.780Z,67.31
2022-10-06T16:54:40.663Z,68.06
2022-10-06T16:57:07.401Z,68.23
2022-10-06T16:59:34.240Z,68.03
2022-10-06T17:02:01.134Z,67.79
2022-10-06T17:04:27.948Z,68.38
2022-10-06T17:06:56.421Z,68.40
2022-10-06T17:09:25.738Z,68.66
2022-10-06T17:11:57.587Z,68.95
2022-10-06T17:14:25.186Z,68.99
2022-10-06T17:16:53.641Z,69.15
2022-10-06T17:19:22.593Z,69.25
2022-10-06T17:21:54.059Z,69.30
2022-10-06T17:24:24.775Z,69.27
2022-10-06T17:26:51.518Z,69.55
2022-10-06T17:29:20.566Z,69.44
2022-10-06T17:31:49.482Z,69.68
2022-10-06T17:34:21.244Z,69.81
2022-10-06T17:36:50.642Z,69.58
2022-10-06T17:39:19.863Z,69.91
2022-10-06T17:41:47.550Z,70.05
2022-10-06T17:44:16.501Z,70.10
2022-10-06T17:46:44.783Z,70.41
2022-10-06T17:49:16.644Z,70.39
2022-10-06T17:51:44.930Z,70.40
2022-10-06T17:54:13.436Z,70.31
2022-10-06T17:56:40.440Z,70.47
2022-10-06T17:59:12.195Z,70.27
2022-10-06T18:01:39.003Z,70.54
2022-10-06T18:04:07.290Z,70.70
2022-10-06T18:06:35.874Z,70.57
2022-10-06T18:09:03.725Z,70.61
2022-10-06T18:11:31.478Z,71.01
2022-10-06T18:13:59.605Z,71.03
2022-10-06T18:16:29.645Z,70.73
2022-10-06T18:18:59.687Z,71.30
2022-10-06T18:21:26.650Z,71.36
2022-10-06T18:23:53.468Z,71.10
2022-10-06T18:26:21.443Z,71.45
2022-10-06T18:28:52.088Z,71.53
2022-10-06T18:31:24.260Z,71.75
2022-10-06T18:36:42.713Z,71.63
2022-10-06T18:39:11.111Z,71.67
2022-10-06T18:41:39.068Z,71.97
2022-10-06T18:44:06.712Z,72.55
2022-10-06T18:46:34.598Z,72.11
2022-10-06T18:49:05.309Z,73.08
2022-10-06T18:51:37.766Z,72.79
2022-10-06T18:54:09.791Z,73.26
2022-10-06T18:56:37.813Z,73.06
2022-10-06T18:59:08.150Z,72.76
2022-10-06T19:01:35.241Z,72.60
2022-10-06T19:04:06.890Z,73.24
2022-10-06T19:06:33.764Z,72.90
2022-10-06T19:09:01.303Z,72.95
2022-10-06T19:11:30.286Z,72.75
2022-10-06T19:13:56.998Z,72.38
2022-10-06T19:16:24.032Z,72.12
2022-10-06T19:18:50.875Z,72.61
2022-10-06T19:21:17.666Z,72.47
2022-10-06T19:23:44.498Z,72.66
2022-10-06T19:26:11.464Z,73.02
2022-10-06T19:28:39.453Z,72.42
2022-10-06T19:31:12.292Z,72.70
2022-10-06T19:33:39.657Z,73.04
2022-10-06T19:36:08.310Z,72.98
2022-10-06T19:38:37.605Z,73.33
2022-10-06T19:41:07.507Z,73.54
2022-10-06T19:43:34.260Z,73.45
2022-10-06T19:46:01.144Z,73.11
2022-10-06T19:48:27.954Z,73.30
2022-10-06T19:50:54.705Z,73.37
2022-10-06T19:53:24.437Z,73.54
2022-10-06T19:55:51.217Z,73.12
2022-10-06T19:58:18.001Z,72.97
2022-10-06T20:00:44.713Z,73.60
2022-10-06T20:03:11.472Z,72.82
2022-10-06T20:08:18.707Z,73.57
2022-10-06T20:10:45.483Z,73.82
2022-10-06T20:13:12.182Z,73.13
2022-10-06T20:15:39.075Z,73.45
2022-10-06T20:18:05.961Z,73.55
2022-10-06T20:20:32.803Z,73.81
2022-10-06T20:22:59.696Z,73.66
2022-10-06T20:25:26.459Z,74.39
2022-10-06T20:27:53.223Z,74.21
2022-10-06T20:30:19.993Z,74.17
2022-10-06T20:32:46.749Z,74.15
2022-10-06T20:35:13.550Z,73.83
2022-10-06T20:37:40.404Z,73.30
2022-10-06T20:40:09.095Z,73.30
2022-10-06T20:42:35.935Z,73.90
2022-10-06T20:45:03.059Z,73.59
2022-10-06T20:47:29.769Z,72.98
2022-10-06T20:49:56.543Z,73.49
2022-10-06T20:52:24.068Z,73.61
2022-10-06T20:54:50.870Z,73.85
2022-10-06T20:57:17.672Z,73.36
2022-10-06T20:59:44.613Z,72.88
2022-10-06T21:02:11.707Z,73.20
2022-10-06T21:04:41.572Z,73.13
2022-10-06T21:07:08.431Z,73.18
2022-10-06T21:09:35.231Z,73.18
2022-10-06T21:12:01.959Z,73.22
2022-10-06T21:14:28.786Z,72.99
2022-10-06T21:16:55.621Z,73.54
2022-10-06T21:19:22.315Z,73.30
2022-10-06T21:21:49.531Z,73.59
2022-10-06T21:24:16.990Z,73.34
2022-10-06T21:26:43.773Z,73.57
2022-10-06T21:29:11.597Z,73.29
2022-10-06T21:31:38.808Z,72.70
2022-10-06T21:34:05.647Z,72.19
2022-10-06T21:36:32.583Z,71.94
2022-10-06T21:39:00.639Z,71.77
2022-10-06T21:41:29.873Z,72.00
2022-10-06T21:44:01.977Z,72.06
2022-10-06T21:46:33.927Z,71.51
2022-10-06T21:49:01.642Z,71.29
2022-10-06T21:51:30.540Z,71.63
2022-10-06T21:53:59.305Z,71.85
2022-10-06T21:56:27.484Z,71.68
2022-10-06T21:58:55.534Z,71.11
2022-10-06T22:01:25.036Z,71.59
2022-10-06T22:03:52.026Z,71.79
2022-10-06T22:06:19.918Z,71.89
2022-10-06T22:08:47.236Z,72.01
2022-10-06T22:11:17.817Z,72.08
2022-10-06T22:13:47.570Z,71.93
2022-10-06T22:16:17.028Z,72.40
2022-10-06T22:18:43.756Z,71.92
2022-10-06T22:21:32.031Z,72.04
2022-10-06T22:24:06.399Z,71.97
2022-10-06T22:26:35.598Z,72.30
2022-10-06T22:29:02.471Z,72.71
2022-10-06T22:31:29.186Z,72.20
2022-10-06T22:33:58.672Z,72.39
2022-10-06T22:36:26.926Z,72.64
2022-10-06T22:38:55.148Z,72.72
2022-10-06T22:41:22.667Z,72.57
2022-10-06T22:43:53.058Z,72.31
2022-10-06T22:46:19.819Z,72.16
2022-10-06T22:48:46.679Z,72.68
2022-10-06T22:51:13.446Z,72.33
2022-10-06T22:53:40.143Z,72.35
2022-10-06T22:56:07.118Z,72.28
2022-10-06T22:58:35.091Z,72.66
2022-10-06T23:01:12.154Z,71.89
2022-10-06T23:03:40.150Z,72.56
2022-10-06T23:06:10.152Z,72.00
2022-10-06T23:08:38.116Z,71.74
2022-10-06T23:11:13.548Z,71.42
2022-10-06T23:13:41.382Z,71.26
2022-10-06T23:16:10.202Z,72.00
2022-10-06T23:18:39.445Z,71.91
2022-10-06T23:21:09.317Z,71.70
2022-10-06T23:23:36.828Z,71.69
2022-10-06T23:26:14.683Z,71.61
2022-10-06T23:28:42.011Z,71.56
2022-10-06T23:31:10.318Z,72.09
2022-10-06T23:33:37.285Z,72.20
2022-10-06T23:36:06.670Z,71.88
2022-10-06T23:38:34.518Z,71.92
2022-10-06T23:41:01.256Z,72.40
2022-10-06T23:43:31.399Z,71.53
2022-10-06T23:45:58.404Z,71.11
2022-10-06T23:48:26.298Z,71.25
2022-10-06T23:51:04.309Z,70.38
2022-10-06T23:53:32.052Z,70.41
2022-10-06T23:55:59.147Z,69.73
2022-10-06T23:58:27.933Z,69.76
